sensor_id;sensor_type;location;lat;lon;timestamp;P1;durP1;ratioP1;P2;durP2;ratioP2
22571;SDS011;11452;53.368;14.658;2023-08-07T00:04:23;1.47;;;1.27;;
22571;SDS011;11452;53.368;14.658;2023-08-07T00:09:30;1.37;;;1.27;;
22571;SDS011;11452;53.368;14.658;2023-08-07T00:14:36;4.17;;;1.50;;
22571;SDS011;11452;53.368;14.658;2023-08-07T00:19:42;1.47;;;1.30;;
22571;SDS011;11452;53.368;14.658;2023-08-07T00:24:47;2.47;;;1.60;;
22571;SDS011;11452;53.368;14.658;2023-08-07T00:29:53;2.80;;;1.60;;
22571;SDS011;11452;53.368;14.658;2023-08-07T00:34:59;1.80;;;1.67;;
22571;SDS011;11452;53.368;14.658;2023-08-07T00:40:05;1.70;;;1.33;;
22571;SDS011;11452;53.368;14.658;2023-08-07T00:45:12;3.00;;;1.63;;
22571;SDS011;11452;53.368;14.658;2023-08-07T00:50:18;1.87;;;1.20;;
22571;SDS011;11452;53.368;14.658;2023-08-07T00:55:25;2.30;;;1.50;;
22571;SDS011;11452;53.368;14.658;2023-08-07T01:00:32;3.00;;;1.60;;
22571;SDS011;11452;53.368;14.658;2023-08-07T01:05:38;2.47;;;1.20;;
22571;SDS011;11452;53.368;14.658;2023-08-07T01:11:03;3.43;;;1.60;;
22571;SDS011;11452;53.368;14.658;2023-08-07T01:16:06;1.37;;;1.27;;
22571;SDS011;11452;53.368;14.658;2023-08-07T01:21:19;1.53;;;1.30;;
22571;SDS011;11452;53.368;14.658;2023-08-07T01:26:26;3.07;;;1.33;;
22571;SDS011;11452;53.368;14.658;2023-08-07T01:31:33;2.70;;;1.20;;
22571;SDS011;11452;53.368;14.658;2023-08-07T01:36:40;2.27;;;1.43;;
22571;SDS011;11452;53.368;14.658;2023-08-07T01:41:47;1.67;;;1.27;;
22571;SDS011;11452;53.368;14.658;2023-08-07T01:46:53;1.70;;;1.10;;
22571;SDS011;11452;53.368;14.658;2023-08-07T01:51:59;1.70;;;1.60;;
22571;SDS011;11452;53.368;14.658;2023-08-07T01:57:06;1.20;;;1.00;;
22571;SDS011;11452;53.368;14.658;2023-08-07T02:02:11;1.30;;;1.20;;
22571;SDS011;11452;53.368;14.658;2023-08-07T02:07:17;2.30;;;1.13;;
22571;SDS011;11452;53.368;14.658;2023-08-07T02:12:23;2.97;;;1.50;;
22571;SDS011;11452;53.368;14.658;2023-08-07T02:17:30;2.40;;;1.90;;
22571;SDS011;11452;53.368;14.658;2023-08-07T02:22:38;2.27;;;1.17;;
22571;SDS011;11452;53.368;14.658;2023-08-07T02:27:44;1.50;;;1.40;;
22571;SDS011;11452;53.368;14.658;2023-08-07T02:32:49;1.57;;;1.37;;
22571;SDS011;11452;53.368;14.658;2023-08-07T02:37:57;1.43;;;1.33;;
22571;SDS011;11452;53.368;14.658;2023-08-07T02:43:03;1.90;;;1.30;;
22571;SDS011;11452;53.368;14.658;2023-08-07T02:48:08;1.83;;;1.53;;
22571;SDS011;11452;53.368;14.658;2023-08-07T02:53:15;1.50;;;1.40;;
22571;SDS011;11452;53.368;14.658;2023-08-07T02:58:20;2.63;;;1.60;;
22571;SDS011;11452;53.368;14.658;2023-08-07T03:03:28;2.03;;;1.63;;
22571;SDS011;11452;53.368;14.658;2023-08-07T03:08:34;1.73;;;1.40;;
22571;SDS011;11452;53.368;14.658;2023-08-07T03:13:40;2.53;;;2.03;;
22571;SDS011;11452;53.368;14.658;2023-08-07T03:18:47;1.93;;;1.60;;
22571;SDS011;11452;53.368;14.658;2023-08-07T03:23:55;1.70;;;1.60;;
22571;SDS011;11452;53.368;14.658;2023-08-07T03:29:02;2.00;;;1.80;;
22571;SDS011;11452;53.368;14.658;2023-08-07T03:34:07;1.90;;;1.70;;
22571;SDS011;11452;53.368;14.658;2023-08-07T03:39:13;1.60;;;1.50;;
22571;SDS011;11452;53.368;14.658;2023-08-07T03:44:19;1.90;;;1.50;;
22571;SDS011;11452;53.368;14.658;2023-08-07T03:49:25;2.07;;;1.47;;
22571;SDS011;11452;53.368;14.658;2023-08-07T03:54:32;1.93;;;1.60;;
22571;SDS011;11452;53.368;14.658;2023-08-07T03:59:38;1.63;;;1.53;;
22571;SDS011;11452;53.368;14.658;2023-08-07T04:04:44;1.80;;;1.33;;
22571;SDS011;11452;53.368;14.658;2023-08-07T04:09:49;3.03;;;1.80;;
22571;SDS011;11452;53.368;14.658;2023-08-07T04:14:56;1.93;;;1.63;;
22571;SDS011;11452;53.368;14.658;2023-08-07T04:20:02;2.07;;;1.30;;
22571;SDS011;11452;53.368;14.658;2023-08-07T04:25:09;2.07;;;1.47;;
22571;SDS011;11452;53.368;14.658;2023-08-07T04:30:15;2.63;;;1.60;;
22571;SDS011;11452;53.368;14.658;2023-08-07T04:35:21;3.17;;;1.93;;
22571;SDS011;11452;53.368;14.658;2023-08-07T04:40:26;2.53;;;1.30;;
22571;SDS011;11452;53.368;14.658;2023-08-07T04:45:33;2.37;;;1.63;;
22571;SDS011;11452;53.368;14.658;2023-08-07T04:50:40;1.50;;;1.40;;
22571;SDS011;11452;53.368;14.658;2023-08-07T04:55:46;2.70;;;1.57;;
22571;SDS011;11452;53.368;14.658;2023-08-07T05:00:56;2.83;;;1.70;;
22571;SDS011;11452;53.368;14.658;2023-08-07T05:06:02;2.17;;;1.50;;
22571;SDS011;11452;53.368;14.658;2023-08-07T05:11:10;1.70;;;1.40;;
22571;SDS011;11452;53.368;14.658;2023-08-07T05:16:15;3.50;;;1.83;;
22571;SDS011;11452;53.368;14.658;2023-08-07T05:21:23;2.10;;;1.37;;
22571;SDS011;11452;53.368;14.658;2023-08-07T05:26:28;2.03;;;1.83;;
22571;SDS011;11452;53.368;14.658;2023-08-07T05:31:34;2.63;;;1.70;;
22571;SDS011;11452;53.368;14.658;2023-08-07T05:36:41;1.60;;;1.50;;
22571;SDS011;11452;53.368;14.658;2023-08-07T05:41:46;1.43;;;1.27;;
22571;SDS011;11452;53.368;14.658;2023-08-07T05:46:52;2.03;;;1.40;;
22571;SDS011;11452;53.368;14.658;2023-08-07T05:51:57;2.23;;;1.40;;
22571;SDS011;11452;53.368;14.658;2023-08-07T05:57:03;0.87;;;0.87;;
22571;SDS011;11452;53.368;14.658;2023-08-07T06:02:09;1.73;;;1.53;;
22571;SDS011;11452;53.368;14.658;2023-08-07T06:07:15;1.40;;;1.10;;
22571;SDS011;11452;53.368;14.658;2023-08-07T06:12:21;1.47;;;1.07;;
22571;SDS011;11452;53.368;14.658;2023-08-07T06:17:27;1.27;;;1.00;;
22571;SDS011;11452;53.368;14.658;2023-08-07T06:22:32;2.10;;;0.97;;
22571;SDS011;11452;53.368;14.658;2023-08-07T06:27:38;1.83;;;1.40;;
22571;SDS011;11452;53.368;14.658;2023-08-07T06:32:44;1.77;;;1.60;;
22571;SDS011;11452;53.368;14.658;2023-08-07T06:37:49;1.17;;;1.13;;
22571;SDS011;11452;53.368;14.658;2023-08-07T06:42:55;1.90;;;1.70;;
22571;SDS011;11452;53.368;14.658;2023-08-07T06:48:01;3.37;;;2.27;;
22571;SDS011;11452;53.368;14.658;2023-08-07T06:53:07;2.50;;;2.30;;
22571;SDS011;11452;53.368;14.658;2023-08-07T06:58:12;2.73;;;2.20;;
22571;SDS011;11452;53.368;14.658;2023-08-07T07:03:18;2.93;;;2.60;;
22571;SDS011;11452;53.368;14.658;2023-08-07T07:08:24;2.87;;;2.47;;
22571;SDS011;11452;53.368;14.658;2023-08-07T07:13:30;2.77;;;2.23;;
22571;SDS011;11452;53.368;14.658;2023-08-07T07:18:35;3.13;;;2.50;;
22571;SDS011;11452;53.368;14.658;2023-08-07T07:23:41;3.33;;;2.27;;
22571;SDS011;11452;53.368;14.658;2023-08-07T07:28:47;3.87;;;2.30;;
22571;SDS011;11452;53.368;14.658;2023-08-07T07:33:54;2.80;;;2.10;;
22571;SDS011;11452;53.368;14.658;2023-08-07T07:39:00;2.97;;;1.83;;
22571;SDS011;11452;53.368;14.658;2023-08-07T07:44:06;2.57;;;2.13;;
22571;SDS011;11452;53.368;14.658;2023-08-07T07:49:11;2.33;;;1.80;;
22571;SDS011;11452;53.368;14.658;2023-08-07T07:54:17;2.87;;;2.40;;
22571;SDS011;11452;53.368;14.658;2023-08-07T07:59:23;2.57;;;2.10;;
22571;SDS011;11452;53.368;14.658;2023-08-07T08:04:28;2.20;;;2.00;;
22571;SDS011;11452;53.368;14.658;2023-08-07T08:09:34;2.67;;;2.20;;
22571;SDS011;11452;53.368;14.658;2023-08-07T08:14:40;2.50;;;2.30;;
22571;SDS011;11452;53.368;14.658;2023-08-07T08:19:47;2.30;;;1.70;;
22571;SDS011;11452;53.368;14.658;2023-08-07T08:24:54;2.70;;;1.90;;
22571;SDS011;11452;53.368;14.658;2023-08-07T08:30:00;1.97;;;1.63;;
22571;SDS011;11452;53.368;14.658;2023-08-07T08:35:08;2.20;;;2.00;;
22571;SDS011;11452;53.368;14.658;2023-08-07T08:40:13;3.97;;;1.90;;
22571;SDS011;11452;53.368;14.658;2023-08-07T08:45:21;2.23;;;1.90;;
22571;SDS011;11452;53.368;14.658;2023-08-07T08:50:28;2.13;;;1.60;;
22571;SDS011;11452;53.368;14.658;2023-08-07T08:55:34;3.53;;;1.70;;
22571;SDS011;11452;53.368;14.658;2023-08-07T09:00:41;2.03;;;1.90;;
22571;SDS011;11452;53.368;14.658;2023-08-07T09:05:47;2.70;;;2.20;;
22571;SDS011;11452;53.368;14.658;2023-08-07T09:10:56;2.40;;;2.10;;
22571;SDS011;11452;53.368;14.658;2023-08-07T09:16:02;4.10;;;2.80;;
22571;SDS011;11452;53.368;14.658;2023-08-07T09:21:11;2.03;;;1.53;;
22571;SDS011;11452;53.368;14.658;2023-08-07T09:26:24;4.53;;;2.13;;
22571;SDS011;11452;53.368;14.658;2023-08-07T09:31:28;1.90;;;1.70;;
22571;SDS011;11452;53.368;14.658;2023-08-07T09:36:37;2.00;;;1.87;;
22571;SDS011;11452;53.368;14.658;2023-08-07T09:41:43;1.80;;;1.70;;
22571;SDS011;11452;53.368;14.658;2023-08-07T09:46:50;2.57;;;1.83;;
22571;SDS011;11452;53.368;14.658;2023-08-07T09:51:57;1.70;;;1.50;;
22571;SDS011;11452;53.368;14.658;2023-08-07T09:57:03;2.80;;;1.63;;
22571;SDS011;11452;53.368;14.658;2023-08-07T10:02:10;4.30;;;2.03;;
22571;SDS011;11452;53.368;14.658;2023-08-07T10:07:18;3.43;;;2.00;;
22571;SDS011;11452;53.368;14.658;2023-08-07T10:12:25;3.63;;;2.03;;
22571;SDS011;11452;53.368;14.658;2023-08-07T10:17:32;3.60;;;1.90;;
22571;SDS011;11452;53.368;14.658;2023-08-07T10:22:38;4.40;;;2.13;;
22571;SDS011;11452;53.368;14.658;2023-08-07T10:27:45;2.97;;;1.70;;
22571;SDS011;11452;53.368;14.658;2023-08-07T10:32:54;3.83;;;2.47;;
22571;SDS011;11452;53.368;14.658;2023-08-07T10:38:08;2.80;;;1.93;;
22571;SDS011;11452;53.368;14.658;2023-08-07T10:43:17;2.97;;;1.73;;
22571;SDS011;11452;53.368;14.658;2023-08-07T10:48:23;5.07;;;1.93;;
22571;SDS011;11452;53.368;14.658;2023-08-07T10:53:31;3.27;;;2.10;;
22571;SDS011;11452;53.368;14.658;2023-08-07T10:58:47;3.73;;;2.07;;
22571;SDS011;11452;53.368;14.658;2023-08-07T11:03:58;3.90;;;1.63;;
22571;SDS011;11452;53.368;14.658;2023-08-07T11:09:05;7.10;;;2.07;;
22571;SDS011;11452;53.368;14.658;2023-08-07T11:14:13;2.37;;;1.90;;
22571;SDS011;11452;53.368;14.658;2023-08-07T11:19:20;4.87;;;1.90;;
22571;SDS011;11452;53.368;14.658;2023-08-07T11:24:29;7.10;;;2.47;;
22571;SDS011;11452;53.368;14.658;2023-08-07T11:29:35;5.73;;;2.30;;
22571;SDS011;11452;53.368;14.658;2023-08-07T11:34:46;3.60;;;2.30;;
22571;SDS011;11452;53.368;14.658;2023-08-07T11:39:59;4.50;;;1.63;;
22571;SDS011;11452;53.368;14.658;2023-08-07T11:45:08;5.30;;;2.77;;
22571;SDS011;11452;53.368;14.658;2023-08-07T11:50:14;7.27;;;2.77;;
22571;SDS011;11452;53.368;14.658;2023-08-07T11:55:20;5.33;;;2.67;;
22571;SDS011;11452;53.368;14.658;2023-08-07T12:00:28;8.47;;;2.53;;
22571;SDS011;11452;53.368;14.658;2023-08-07T12:05:40;4.43;;;2.40;;
22571;SDS011;11452;53.368;14.658;2023-08-07T12:10:56;5.13;;;2.40;;
22571;SDS011;11452;53.368;14.658;2023-08-07T12:15:57;8.03;;;2.50;;
22571;SDS011;11452;53.368;14.658;2023-08-07T12:21:04;4.03;;;2.10;;
22571;SDS011;11452;53.368;14.658;2023-08-07T12:26:11;3.50;;;2.43;;
22571;SDS011;11452;53.368;14.658;2023-08-07T12:31:17;8.60;;;2.60;;
22571;SDS011;11452;53.368;14.658;2023-08-07T12:36:23;5.50;;;2.67;;
22571;SDS011;11452;53.368;14.658;2023-08-07T12:41:28;5.17;;;2.40;;
22571;SDS011;11452;53.368;14.658;2023-08-07T12:46:36;5.63;;;2.70;;
22571;SDS011;11452;53.368;14.658;2023-08-07T12:51:42;6.70;;;2.63;;
22571;SDS011;11452;53.368;14.658;2023-08-07T12:56:50;3.97;;;2.17;;
22571;SDS011;11452;53.368;14.658;2023-08-07T13:01:56;3.40;;;2.10;;
22571;SDS011;11452;53.368;14.658;2023-08-07T13:07:02;5.60;;;2.57;;
22571;SDS011;11452;53.368;14.658;2023-08-07T13:12:09;6.03;;;2.40;;
22571;SDS011;11452;53.368;14.658;2023-08-07T13:17:15;7.40;;;2.27;;
22571;SDS011;11452;53.368;14.658;2023-08-07T13:22:20;7.20;;;2.40;;
22571;SDS011;11452;53.368;14.658;2023-08-07T13:27:26;5.83;;;3.00;;
22571;SDS011;11452;53.368;14.658;2023-08-07T13:32:32;4.50;;;2.70;;
22571;SDS011;11452;53.368;14.658;2023-08-07T13:37:38;6.23;;;2.83;;
22571;SDS011;11452;53.368;14.658;2023-08-07T13:42:43;5.37;;;2.37;;
22571;SDS011;11452;53.368;14.658;2023-08-07T13:47:50;6.03;;;2.70;;
22571;SDS011;11452;53.368;14.658;2023-08-07T13:52:56;5.87;;;2.97;;
22571;SDS011;11452;53.368;14.658;2023-08-07T13:58:04;6.83;;;2.67;;
22571;SDS011;11452;53.368;14.658;2023-08-07T14:03:09;4.80;;;2.30;;
22571;SDS011;11452;53.368;14.658;2023-08-07T14:08:18;5.47;;;2.50;;
22571;SDS011;11452;53.368;14.658;2023-08-07T14:13:24;5.77;;;2.80;;
22571;SDS011;11452;53.368;14.658;2023-08-07T14:18:30;9.93;;;2.57;;
22571;SDS011;11452;53.368;14.658;2023-08-07T14:23:36;7.17;;;2.50;;
22571;SDS011;11452;53.368;14.658;2023-08-07T14:28:41;8.57;;;2.43;;
22571;SDS011;11452;53.368;14.658;2023-08-07T14:33:47;5.27;;;2.40;;
22571;SDS011;11452;53.368;14.658;2023-08-07T14:38:54;7.47;;;2.40;;
22571;SDS011;11452;53.368;14.658;2023-08-07T14:44:00;3.23;;;1.90;;
22571;SDS011;11452;53.368;14.658;2023-08-07T14:49:06;5.13;;;2.00;;
22571;SDS011;11452;53.368;14.658;2023-08-07T14:54:12;5.80;;;2.17;;
22571;SDS011;11452;53.368;14.658;2023-08-07T14:59:17;3.33;;;2.03;;
22571;SDS011;11452;53.368;14.658;2023-08-07T15:04:23;7.60;;;2.63;;
22571;SDS011;11452;53.368;14.658;2023-08-07T15:09:29;8.27;;;2.60;;
22571;SDS011;11452;53.368;14.658;2023-08-07T15:14:35;6.77;;;2.50;;
22571;SDS011;11452;53.368;14.658;2023-08-07T15:19:41;5.33;;;2.30;;
22571;SDS011;11452;53.368;14.658;2023-08-07T15:24:46;5.87;;;2.07;;
22571;SDS011;11452;53.368;14.658;2023-08-07T15:29:52;5.80;;;2.37;;
22571;SDS011;11452;53.368;14.658;2023-08-07T15:34:58;5.27;;;1.93;;
22571;SDS011;11452;53.368;14.658;2023-08-07T15:40:04;2.80;;;1.90;;
22571;SDS011;11452;53.368;14.658;2023-08-07T15:45:12;4.90;;;2.07;;
22571;SDS011;11452;53.368;14.658;2023-08-07T15:50:18;3.77;;;2.10;;
22571;SDS011;11452;53.368;14.658;2023-08-07T15:55:24;3.93;;;1.70;;
22571;SDS011;11452;53.368;14.658;2023-08-07T16:00:30;5.00;;;2.07;;
22571;SDS011;11452;53.368;14.658;2023-08-07T16:05:38;4.83;;;1.73;;
22571;SDS011;11452;53.368;14.658;2023-08-07T16:10:44;4.07;;;1.80;;
22571;SDS011;11452;53.368;14.658;2023-08-07T16:15:50;5.87;;;2.30;;
22571;SDS011;11452;53.368;14.658;2023-08-07T16:20:56;4.70;;;2.07;;
22571;SDS011;11452;53.368;14.658;2023-08-07T16:26:02;7.57;;;2.30;;
22571;SDS011;11452;53.368;14.658;2023-08-07T16:31:08;6.27;;;2.03;;
22571;SDS011;11452;53.368;14.658;2023-08-07T16:36:13;5.03;;;1.83;;
22571;SDS011;11452;53.368;14.658;2023-08-07T16:41:20;5.40;;;2.20;;
22571;SDS011;11452;53.368;14.658;2023-08-07T16:46:27;7.27;;;2.40;;
22571;SDS011;11452;53.368;14.658;2023-08-07T16:51:34;3.87;;;1.80;;
22571;SDS011;11452;53.368;14.658;2023-08-07T16:56:41;6.50;;;1.87;;
22571;SDS011;11452;53.368;14.658;2023-08-07T17:01:48;4.53;;;2.20;;
22571;SDS011;11452;53.368;14.658;2023-08-07T17:06:55;6.07;;;2.07;;
22571;SDS011;11452;53.368;14.658;2023-08-07T17:12:04;3.97;;;1.53;;
22571;SDS011;11452;53.368;14.658;2023-08-07T17:17:11;5.53;;;1.83;;
22571;SDS011;11452;53.368;14.658;2023-08-07T17:22:16;4.27;;;2.20;;
22571;SDS011;11452;53.368;14.658;2023-08-07T17:27:22;3.43;;;1.70;;
22571;SDS011;11452;53.368;14.658;2023-08-07T17:32:29;7.60;;;1.87;;
22571;SDS011;11452;53.368;14.658;2023-08-07T17:37:37;5.50;;;1.50;;
22571;SDS011;11452;53.368;14.658;2023-08-07T17:42:43;5.60;;;1.50;;
22571;SDS011;11452;53.368;14.658;2023-08-07T17:47:48;2.47;;;1.70;;
22571;SDS011;11452;53.368;14.658;2023-08-07T17:52:54;4.13;;;1.50;;
22571;SDS011;11452;53.368;14.658;2023-08-07T17:58:00;3.63;;;1.77;;
22571;SDS011;11452;53.368;14.658;2023-08-07T18:03:06;4.73;;;2.03;;
22571;SDS011;11452;53.368;14.658;2023-08-07T18:08:14;4.17;;;2.27;;
22571;SDS011;11452;53.368;14.658;2023-08-07T18:13:20;5.10;;;1.90;;
22571;SDS011;11452;53.368;14.658;2023-08-07T18:18:26;4.93;;;1.97;;
22571;SDS011;11452;53.368;14.658;2023-08-07T18:23:31;6.00;;;2.17;;
22571;SDS011;11452;53.368;14.658;2023-08-07T18:28:37;3.53;;;2.10;;
22571;SDS011;11452;53.368;14.658;2023-08-07T18:33:43;8.57;;;2.73;;
22571;SDS011;11452;53.368;14.658;2023-08-07T18:38:49;3.83;;;1.70;;
22571;SDS011;11452;53.368;14.658;2023-08-07T18:43:55;3.33;;;1.87;;
22571;SDS011;11452;53.368;14.658;2023-08-07T18:49:01;4.77;;;2.03;;
22571;SDS011;11452;53.368;14.658;2023-08-07T18:54:06;3.80;;;1.70;;
22571;SDS011;11452;53.368;14.658;2023-08-07T18:59:12;4.53;;;2.13;;
22571;SDS011;11452;53.368;14.658;2023-08-07T19:04:18;4.77;;;2.20;;
22571;SDS011;11452;53.368;14.658;2023-08-07T19:09:24;7.43;;;1.97;;
22571;SDS011;11452;53.368;14.658;2023-08-07T19:14:29;3.13;;;2.07;;
22571;SDS011;11452;53.368;14.658;2023-08-07T19:19:35;6.80;;;2.07;;
22571;SDS011;11452;53.368;14.658;2023-08-07T19:24:41;11.60;;;2.83;;
22571;SDS011;11452;53.368;14.658;2023-08-07T19:29:47;4.77;;;2.33;;
22571;SDS011;11452;53.368;14.658;2023-08-07T19:34:53;4.40;;;2.43;;
22571;SDS011;11452;53.368;14.658;2023-08-07T19:39:59;4.50;;;1.83;;
22571;SDS011;11452;53.368;14.658;2023-08-07T19:45:07;5.13;;;2.23;;
22571;SDS011;11452;53.368;14.658;2023-08-07T19:50:15;5.27;;;2.63;;
22571;SDS011;11452;53.368;14.658;2023-08-07T19:55:21;3.23;;;2.00;;
22571;SDS011;11452;53.368;14.658;2023-08-07T20:00:27;6.50;;;2.30;;
22571;SDS011;11452;53.368;14.658;2023-08-07T20:05:32;4.47;;;2.13;;
22571;SDS011;11452;53.368;14.658;2023-08-07T20:10:38;3.87;;;2.40;;
22571;SDS011;11452;53.368;14.658;2023-08-07T20:15:44;3.63;;;2.33;;
22571;SDS011;11452;53.368;14.658;2023-08-07T20:20:49;3.93;;;2.00;;
22571;SDS011;11452;53.368;14.658;2023-08-07T20:25:55;5.97;;;2.50;;
22571;SDS011;11452;53.368;14.658;2023-08-07T20:31:01;6.23;;;2.00;;
22571;SDS011;11452;53.368;14.658;2023-08-07T20:36:07;6.40;;;2.23;;
22571;SDS011;11452;53.368;14.658;2023-08-07T20:41:12;5.97;;;2.30;;
22571;SDS011;11452;53.368;14.658;2023-08-07T20:46:18;4.37;;;1.87;;
22571;SDS011;11452;53.368;14.658;2023-08-07T20:51:24;7.90;;;2.20;;
22571;SDS011;11452;53.368;14.658;2023-08-07T20:56:29;6.10;;;2.30;;
22571;SDS011;11452;53.368;14.658;2023-08-07T21:01:35;4.83;;;2.73;;
22571;SDS011;11452;53.368;14.658;2023-08-07T21:06:43;5.37;;;2.87;;
22571;SDS011;11452;53.368;14.658;2023-08-07T21:11:51;5.93;;;2.53;;
22571;SDS011;11452;53.368;14.658;2023-08-07T21:16:58;7.17;;;2.60;;
22571;SDS011;11452;53.368;14.658;2023-08-07T21:22:04;6.93;;;2.50;;
22571;SDS011;11452;53.368;14.658;2023-08-07T21:27:10;3.93;;;2.83;;
22571;SDS011;11452;53.368;14.658;2023-08-07T21:32:16;6.00;;;2.60;;
22571;SDS011;11452;53.368;14.658;2023-08-07T21:37:28;6.73;;;3.23;;
22571;SDS011;11452;53.368;14.658;2023-08-07T21:42:33;3.97;;;2.53;;
22571;SDS011;11452;53.368;14.658;2023-08-07T21:47:39;8.50;;;3.03;;
22571;SDS011;11452;53.368;14.658;2023-08-07T21:52:47;7.03;;;3.07;;
22571;SDS011;11452;53.368;14.658;2023-08-07T21:57:53;4.97;;;2.47;;
22571;SDS011;11452;53.368;14.658;2023-08-07T22:02:58;5.87;;;2.60;;
22571;SDS011;11452;53.368;14.658;2023-08-07T22:08:04;4.90;;;2.67;;
22571;SDS011;11452;53.368;14.658;2023-08-07T22:13:11;6.00;;;2.63;;
22571;SDS011;11452;53.368;14.658;2023-08-07T22:18:17;7.50;;;2.00;;
22571;SDS011;11452;53.368;14.658;2023-08-07T22:23:22;6.70;;;2.60;;
22571;SDS011;11452;53.368;14.658;2023-08-07T22:28:30;6.67;;;2.37;;
22571;SDS011;11452;53.368;14.658;2023-08-07T22:33:35;4.03;;;2.43;;
22571;SDS011;11452;53.368;14.658;2023-08-07T22:38:42;3.53;;;2.40;;
22571;SDS011;11452;53.368;14.658;2023-08-07T22:43:47;7.37;;;2.30;;
22571;SDS011;11452;53.368;14.658;2023-08-07T22:48:54;9.33;;;3.13;;
22571;SDS011;11452;53.368;14.658;2023-08-07T22:53:59;5.53;;;2.40;;
22571;SDS011;11452;53.368;14.658;2023-08-07T22:59:05;6.63;;;2.30;;
22571;SDS011;11452;53.368;14.658;2023-08-07T23:04:11;3.87;;;2.20;;
22571;SDS011;11452;53.368;14.658;2023-08-07T23:09:17;5.43;;;2.30;;
22571;SDS011;11452;53.368;14.658;2023-08-07T23:14:23;5.07;;;2.00;;
22571;SDS011;11452;53.368;14.658;2023-08-07T23:19:29;3.20;;;2.00;;
22571;SDS011;11452;53.368;14.658;2023-08-07T23:24:35;5.23;;;2.40;;
22571;SDS011;11452;53.368;14.658;2023-08-07T23:29:42;3.07;;;1.77;;
22571;SDS011;11452;53.368;14.658;2023-08-07T23:34:48;4.27;;;1.80;;
22571;SDS011;11452;53.368;14.658;2023-08-07T23:39:54;5.93;;;2.20;;
22571;SDS011;11452;53.368;14.658;2023-08-07T23:45:00;5.27;;;2.20;;
22571;SDS011;11452;53.368;14.658;2023-08-07T23:50:06;2.87;;;2.03;;
22571;SDS011;11452;53.368;14.658;2023-08-07T23:55:12;5.20;;;2.50;;
